sensor_id;sensor_type;location;lat;lon;timestamp;pressure;altitude;pressure_sealevel;temperature;humidity
55466;BME280;41329;41.594;23.810;2024-01-16T00:01:05;94042.56;;;3.72;67.25
55466;BME280;41329;41.594;23.810;2024-01-16T00:03:31;94036.13;;;3.64;67.17
55466;BME280;41329;41.594;23.810;2024-01-16T00:05:57;94033.19;;;3.35;68.33
55466;BME280;41329;41.594;23.810;2024-01-16T00:08:23;94037.78;;;3.31;69.40
55466;BME280;41329;41.594;23.810;2024-01-16T00:10:48;94048.13;;;3.41;69.58
55466;BME280;41329;41.594;23.810;2024-01-16T00:13:14;94037.00;;;3.49;69.26
55466;BME280;41329;41.594;23.810;2024-01-16T00:15:39;94029.53;;;3.46;69.63
55466;BME280;41329;41.594;23.810;2024-01-16T00:18:07;94045.78;;;3.58;69.78
55466;BME280;41329;41.594;23.810;2024-01-16T00:20:33;94014.03;;;3.54;69.96
55466;BME280;41329;41.594;23.810;2024-01-16T00:22:59;94024.03;;;3.65;69.67
55466;BME280;41329;41.594;23.810;2024-01-16T00:25:25;94027.66;;;3.50;69.88
55466;BME280;41329;41.594;23.810;2024-01-16T00:27:51;94030.16;;;3.40;70.38
55466;BME280;41329;41.594;23.810;2024-01-16T00:30:16;94053.50;;;3.53;70.18
55466;BME280;41329;41.594;23.810;2024-01-16T00:32:42;94054.34;;;3.57;69.84
55466;BME280;41329;41.594;23.810;2024-01-16T00:35:08;94043.78;;;3.55;70.00
55466;BME280;41329;41.594;23.810;2024-01-16T00:37:35;94057.91;;;3.57;70.38
55466;BME280;41329;41.594;23.810;2024-01-16T00:40:00;94060.34;;;3.62;69.68
55466;BME280;41329;41.594;23.810;2024-01-16T00:42:26;94062.91;;;3.55;69.34
55466;BME280;41329;41.594;23.810;2024-01-16T00:44:52;94037.88;;;3.53;68.82
55466;BME280;41329;41.594;23.810;2024-01-16T00:47:17;94022.59;;;3.52;68.93
55466;BME280;41329;41.594;23.810;2024-01-16T00:49:43;94064.47;;;3.37;69.62
55466;BME280;41329;41.594;23.810;2024-01-16T00:52:08;93994.28;;;2.72;70.91
55466;BME280;41329;41.594;23.810;2024-01-16T00:54:34;94022.13;;;3.12;70.74
55466;BME280;41329;41.594;23.810;2024-01-16T00:56:59;94038.00;;;3.07;71.09
55466;BME280;41329;41.594;23.810;2024-01-16T00:59:25;94046.56;;;3.05;71.39
55466;BME280;41329;41.594;23.810;2024-01-16T01:01:51;94009.81;;;3.03;71.64
55466;BME280;41329;41.594;23.810;2024-01-16T01:04:17;94007.47;;;2.86;71.97
55466;BME280;41329;41.594;23.810;2024-01-16T01:06:42;94051.97;;;2.86;72.71
55466;BME280;41329;41.594;23.810;2024-01-16T01:09:07;94035.75;;;2.78;72.87
55466;BME280;41329;41.594;23.810;2024-01-16T01:11:33;94015.34;;;2.72;72.49
55466;BME280;41329;41.594;23.810;2024-01-16T01:13:58;94036.88;;;2.92;72.58
55466;BME280;41329;41.594;23.810;2024-01-16T01:16:24;94029.56;;;2.96;72.46
55466;BME280;41329;41.594;23.810;2024-01-16T01:18:50;94023.16;;;2.89;72.39
55466;BME280;41329;41.594;23.810;2024-01-16T01:21:15;94043.50;;;2.91;72.79
55466;BME280;41329;41.594;23.810;2024-01-16T01:23:41;94023.88;;;2.86;72.91
55466;BME280;41329;41.594;23.810;2024-01-16T01:26:06;94000.84;;;2.87;72.89
55466;BME280;41329;41.594;23.810;2024-01-16T01:28:32;94012.06;;;2.82;73.43
55466;BME280;41329;41.594;23.810;2024-01-16T01:30:57;94024.19;;;3.00;73.46
55466;BME280;41329;41.594;23.810;2024-01-16T01:33:22;94027.59;;;3.12;73.07
55466;BME280;41329;41.594;23.810;2024-01-16T01:35:48;93993.00;;;3.01;72.83
55466;BME280;41329;41.594;23.810;2024-01-16T01:38:13;93994.47;;;3.14;73.16
55466;BME280;41329;41.594;23.810;2024-01-16T01:40:39;94014.69;;;3.28;73.23
55466;BME280;41329;41.594;23.810;2024-01-16T01:43:21;94018.72;;;3.34;72.83
55466;BME280;41329;41.594;23.810;2024-01-16T01:46:13;94002.47;;;3.41;72.64
55466;BME280;41329;41.594;23.810;2024-01-16T01:48:41;94002.47;;;3.41;72.63
55466;BME280;41329;41.594;23.810;2024-01-16T01:51:07;94014.28;;;3.45;72.24
55466;BME280;41329;41.594;23.810;2024-01-16T01:53:33;93981.31;;;3.38;71.87
55466;BME280;41329;41.594;23.810;2024-01-16T01:56:03;93998.88;;;3.56;72.04
55466;BME280;41329;41.594;23.810;2024-01-16T01:58:31;94005.19;;;3.60;71.80
55466;BME280;41329;41.594;23.810;2024-01-16T02:00:59;94005.28;;;3.64;71.42
55466;BME280;41329;41.594;23.810;2024-01-16T02:03:27;94000.59;;;3.64;71.34
55466;BME280;41329;41.594;23.810;2024-01-16T02:05:55;93979.66;;;3.53;71.36
55466;BME280;41329;41.594;23.810;2024-01-16T02:08:21;93991.22;;;3.65;71.26
55466;BME280;41329;41.594;23.810;2024-01-16T02:10:49;94003.03;;;3.69;71.31
55466;BME280;41329;41.594;23.810;2024-01-16T02:13:15;93996.50;;;3.74;71.34
55466;BME280;41329;41.594;23.810;2024-01-16T02:15:43;93993.81;;;3.77;71.27
55466;BME280;41329;41.594;23.810;2024-01-16T02:18:09;93991.94;;;3.81;71.58
55466;BME280;41329;41.594;23.810;2024-01-16T02:20:34;93986.13;;;3.83;71.56
55466;BME280;41329;41.594;23.810;2024-01-16T02:23:03;93969.94;;;3.74;71.11
55466;BME280;41329;41.594;23.810;2024-01-16T02:25:29;93987.63;;;3.80;71.63
55466;BME280;41329;41.594;23.810;2024-01-16T02:27:55;93994.47;;;3.71;71.89
55466;BME280;41329;41.594;23.810;2024-01-16T02:30:20;93996.91;;;3.76;71.35
55466;BME280;41329;41.594;23.810;2024-01-16T02:32:46;93985.91;;;3.72;71.48
55466;BME280;41329;41.594;23.810;2024-01-16T02:35:11;93986.56;;;3.66;71.54
55466;BME280;41329;41.594;23.810;2024-01-16T02:37:36;93979.31;;;3.54;71.58
55466;BME280;41329;41.594;23.810;2024-01-16T02:40:03;93993.41;;;3.56;71.50
55466;BME280;41329;41.594;23.810;2024-01-16T02:42:32;93999.66;;;3.57;71.34
55466;BME280;41329;41.594;23.810;2024-01-16T02:44:58;93999.09;;;3.48;71.65
55466;BME280;41329;41.594;23.810;2024-01-16T02:47:23;94013.63;;;3.52;71.98
55466;BME280;41329;41.594;23.810;2024-01-16T02:49:48;94016.38;;;3.52;72.07
55466;BME280;41329;41.594;23.810;2024-01-16T02:52:14;94007.34;;;3.51;71.89
55466;BME280;41329;41.594;23.810;2024-01-16T02:54:40;94013.75;;;3.59;71.84
55466;BME280;41329;41.594;23.810;2024-01-16T02:57:06;93985.34;;;3.44;71.76
55466;BME280;41329;41.594;23.810;2024-01-16T02:59:31;94007.81;;;3.53;71.81
55466;BME280;41329;41.594;23.810;2024-01-16T03:01:57;93997.06;;;3.45;72.09
55466;BME280;41329;41.594;23.810;2024-01-16T03:04:22;94009.75;;;3.53;72.20
55466;BME280;41329;41.594;23.810;2024-01-16T03:06:48;94008.22;;;3.55;72.65
55466;BME280;41329;41.594;23.810;2024-01-16T03:09:13;93996.47;;;3.55;72.34
55466;BME280;41329;41.594;23.810;2024-01-16T03:11:39;93981.25;;;3.54;72.54
55466;BME280;41329;41.594;23.810;2024-01-16T03:14:05;93995.56;;;3.66;72.59
55466;BME280;41329;41.594;23.810;2024-01-16T03:16:32;94013.84;;;3.62;72.56
55466;BME280;41329;41.594;23.810;2024-01-16T03:18:58;94030.69;;;3.64;72.62
55466;BME280;41329;41.594;23.810;2024-01-16T03:21:24;94039.31;;;3.66;72.18
55466;BME280;41329;41.594;23.810;2024-01-16T03:23:49;94037.09;;;3.72;72.05
55466;BME280;41329;41.594;23.810;2024-01-16T03:26:15;93982.47;;;3.37;72.21
55466;BME280;41329;41.594;23.810;2024-01-16T03:28:42;94022.63;;;3.71;72.19
55466;BME280;41329;41.594;23.810;2024-01-16T03:31:07;94025.34;;;3.71;72.28
55466;BME280;41329;41.594;23.810;2024-01-16T03:33:33;94017.09;;;3.68;72.24
55466;BME280;41329;41.594;23.810;2024-01-16T03:36:00;94049.47;;;3.66;72.82
55466;BME280;41329;41.594;23.810;2024-01-16T03:38:25;94045.22;;;3.68;72.46
55466;BME280;41329;41.594;23.810;2024-01-16T03:40:51;94048.41;;;3.70;72.35
55466;BME280;41329;41.594;23.810;2024-01-16T03:43:17;94059.97;;;3.64;72.54
55466;BME280;41329;41.594;23.810;2024-01-16T03:45:42;94055.63;;;3.63;72.72
55466;BME280;41329;41.594;23.810;2024-01-16T03:48:08;94026.50;;;3.51;73.00
55466;BME280;41329;41.594;23.810;2024-01-16T03:50:33;94038.47;;;3.62;72.95
55466;BME280;41329;41.594;23.810;2024-01-16T03:53:00;94023.06;;;3.54;72.77
55466;BME280;41329;41.594;23.810;2024-01-16T03:55:26;94054.13;;;3.65;72.96
55466;BME280;41329;41.594;23.810;2024-01-16T03:57:51;94052.84;;;3.59;73.21
55466;BME280;41329;41.594;23.810;2024-01-16T04:00:17;94049.41;;;3.62;73.35
55466;BME280;41329;41.594;23.810;2024-01-16T04:02:42;94036.78;;;3.58;73.30
55466;BME280;41329;41.594;23.810;2024-01-16T04:05:08;94039.53;;;3.58;73.17
55466;BME280;41329;41.594;23.810;2024-01-16T04:07:33;94023.25;;;3.46;73.01
55466;BME280;41329;41.594;23.810;2024-01-16T04:09:59;94055.38;;;3.68;73.36
55466;BME280;41329;41.594;23.810;2024-01-16T04:12:24;94044.75;;;3.47;73.32
55466;BME280;41329;41.594;23.810;2024-01-16T04:14:50;94057.66;;;3.66;73.24
55466;BME280;41329;41.594;23.810;2024-01-16T04:17:15;94069.81;;;3.68;72.73
55466;BME280;41329;41.594;23.810;2024-01-16T04:19:40;94075.94;;;3.62;72.93
55466;BME280;41329;41.594;23.810;2024-01-16T04:22:06;94074.13;;;3.69;72.76
55466;BME280;41329;41.594;23.810;2024-01-16T04:24:31;94012.53;;;3.37;72.64
55466;BME280;41329;41.594;23.810;2024-01-16T04:26:57;94076.22;;;3.76;72.53
55466;BME280;41329;41.594;23.810;2024-01-16T04:29:23;94061.91;;;3.63;72.39
55466;BME280;41329;41.594;23.810;2024-01-16T04:31:48;94092.06;;;3.67;72.34
55466;BME280;41329;41.594;23.810;2024-01-16T04:34:14;94092.56;;;3.72;72.39
55466;BME280;41329;41.594;23.810;2024-01-16T04:36:39;94075.88;;;3.58;72.76
55466;BME280;41329;41.594;23.810;2024-01-16T04:39:05;94098.56;;;3.78;72.61
55466;BME280;41329;41.594;23.810;2024-01-16T04:41:30;94101.28;;;3.78;72.78
55466;BME280;41329;41.594;23.810;2024-01-16T04:43:55;94097.84;;;3.81;72.72
55466;BME280;41329;41.594;23.810;2024-01-16T04:46:21;94106.19;;;3.69;73.21
55466;BME280;41329;41.594;23.810;2024-01-16T04:48:46;94115.63;;;3.71;72.91
55466;BME280;41329;41.594;23.810;2024-01-16T04:51:12;94109.91;;;3.80;72.59
55466;BME280;41329;41.594;23.810;2024-01-16T04:53:37;94093.72;;;3.71;72.53
55466;BME280;41329;41.594;23.810;2024-01-16T04:56:03;94099.63;;;3.73;72.79
55466;BME280;41329;41.594;23.810;2024-01-16T04:58:28;94134.34;;;3.88;72.84
55466;BME280;41329;41.594;23.810;2024-01-16T05:00:56;94132.03;;;3.90;72.78
55466;BME280;41329;41.594;23.810;2024-01-16T05:03:21;94132.91;;;3.94;72.50
55466;BME280;41329;41.594;23.810;2024-01-16T05:05:47;94117.34;;;3.79;72.63
55466;BME280;41329;41.594;23.810;2024-01-16T05:08:12;94139.97;;;3.95;72.50
55466;BME280;41329;41.594;23.810;2024-01-16T05:10:37;94130.97;;;3.95;72.51
55466;BME280;41329;41.594;23.810;2024-01-16T05:13:03;94145.88;;;3.97;72.02
55466;BME280;41329;41.594;23.810;2024-01-16T05:15:28;94137.09;;;3.88;72.05
55466;BME280;41329;41.594;23.810;2024-01-16T05:17:54;94152.22;;;4.01;72.01
55466;BME280;41329;41.594;23.810;2024-01-16T05:20:19;94137.09;;;3.88;71.91
55466;BME280;41329;41.594;23.810;2024-01-16T05:22:45;94144.94;;;3.90;71.67
55466;BME280;41329;41.594;23.810;2024-01-16T05:25:10;94163.97;;;4.02;71.44
55466;BME280;41329;41.594;23.810;2024-01-16T05:27:36;94159.72;;;4.04;71.75
55466;BME280;41329;41.594;23.810;2024-01-16T05:30:01;94134.78;;;3.90;71.72
55466;BME280;41329;41.594;23.810;2024-01-16T05:32:27;94160.94;;;4.07;71.27
55466;BME280;41329;41.594;23.810;2024-01-16T05:34:53;94151.50;;;4.04;71.65
55466;BME280;41329;41.594;23.810;2024-01-16T05:37:19;94151.81;;;3.99;71.47
55466;BME280;41329;41.594;23.810;2024-01-16T05:39:44;94161.66;;;4.04;71.29
55466;BME280;41329;41.594;23.810;2024-01-16T05:42:11;94146.69;;;3.98;70.98
55466;BME280;41329;41.594;23.810;2024-01-16T05:44:37;94167.47;;;4.02;71.22
55466;BME280;41329;41.594;23.810;2024-01-16T05:47:03;94158.75;;;3.97;71.28
55466;BME280;41329;41.594;23.810;2024-01-16T05:49:28;94110.94;;;3.72;71.35
55466;BME280;41329;41.594;23.810;2024-01-16T05:51:54;94168.63;;;4.01;71.32
55466;BME280;41329;41.594;23.810;2024-01-16T05:54:20;94165.47;;;3.99;71.15
55466;BME280;41329;41.594;23.810;2024-01-16T05:56:45;94169.34;;;3.98;71.06
55466;BME280;41329;41.594;23.810;2024-01-16T05:59:10;94169.63;;;3.93;71.11
55466;BME280;41329;41.594;23.810;2024-01-16T06:01:36;94172.44;;;3.97;70.85
55466;BME280;41329;41.594;23.810;2024-01-16T06:04:01;94182.16;;;3.94;71.07
55466;BME280;41329;41.594;23.810;2024-01-16T06:06:27;94134.06;;;3.59;71.07
55466;BME280;41329;41.594;23.810;2024-01-16T06:08:52;94188.06;;;3.96;71.02
55466;BME280;41329;41.594;23.810;2024-01-16T06:11:17;94188.38;;;3.91;71.04
55466;BME280;41329;41.594;23.810;2024-01-16T06:13:45;94197.00;;;3.93;71.08
55466;BME280;41329;41.594;23.810;2024-01-16T06:16:10;94199.31;;;3.91;71.17
55466;BME280;41329;41.594;23.810;2024-01-16T06:18:35;94223.59;;;3.93;71.16
55466;BME280;41329;41.594;23.810;2024-01-16T06:21:02;94209.72;;;3.86;71.03
55466;BME280;41329;41.594;23.810;2024-01-16T06:23:28;94219.53;;;3.87;71.15
55466;BME280;41329;41.594;23.810;2024-01-16T06:25:54;94235.50;;;3.85;71.45
55466;BME280;41329;41.594;23.810;2024-01-16T06:28:19;94235.50;;;3.69;71.30
55466;BME280;41329;41.594;23.810;2024-01-16T06:30:45;94245.75;;;3.72;71.40
55466;BME280;41329;41.594;23.810;2024-01-16T06:33:10;94259.88;;;3.74;71.36
55466;BME280;41329;41.594;23.810;2024-01-16T06:35:35;94254.03;;;3.76;71.72
55466;BME280;41329;41.594;23.810;2024-01-16T06:38:01;94256.16;;;3.67;71.59
55466;BME280;41329;41.594;23.810;2024-01-16T06:40:27;94254.94;;;3.49;72.11
55466;BME280;41329;41.594;23.810;2024-01-16T06:42:52;94257.50;;;3.57;73.65
55466;BME280;41329;41.594;23.810;2024-01-16T06:45:17;94266.50;;;3.58;73.52
55466;BME280;41329;41.594;23.810;2024-01-16T06:47:44;94270.09;;;3.62;74.22
55466;BME280;41329;41.594;23.810;2024-01-16T06:50:09;94280.97;;;3.74;73.98
55466;BME280;41329;41.594;23.810;2024-01-16T06:52:35;94276.66;;;3.73;73.95
55466;BME280;41329;41.594;23.810;2024-01-16T06:55:00;94274.25;;;3.71;73.85
55466;BME280;41329;41.594;23.810;2024-01-16T06:57:26;94302.75;;;3.86;73.63
55466;BME280;41329;41.594;23.810;2024-01-16T06:59:52;94307.94;;;3.91;73.84
55466;BME280;41329;41.594;23.810;2024-01-16T07:02:18;94308.13;;;3.98;73.78
55466;BME280;41329;41.594;23.810;2024-01-16T07:04:44;94295.84;;;3.92;73.95
55466;BME280;41329;41.594;23.810;2024-01-16T07:07:09;94279.88;;;3.94;73.69
55466;BME280;41329;41.594;23.810;2024-01-16T07:09:35;94287.00;;;3.98;73.55
55466;BME280;41329;41.594;23.810;2024-01-16T07:12:00;94306.75;;;4.07;73.41
55466;BME280;41329;41.594;23.810;2024-01-16T07:14:26;94285.53;;;3.70;73.51
55466;BME280;41329;41.594;23.810;2024-01-16T07:16:51;94298.25;;;3.62;73.75
55466;BME280;41329;41.594;23.810;2024-01-16T07:19:16;94314.06;;;3.69;73.91
55466;BME280;41329;41.594;23.810;2024-01-16T07:21:42;94333.28;;;3.88;74.14
55466;BME280;41329;41.594;23.810;2024-01-16T07:24:07;94334.97;;;3.92;74.18
55466;BME280;41329;41.594;23.810;2024-01-16T07:26:33;94334.13;;;4.07;74.42
55466;BME280;41329;41.594;23.810;2024-01-16T07:28:59;94336.25;;;4.29;74.29
55466;BME280;41329;41.594;23.810;2024-01-16T07:31:25;94360.84;;;4.45;74.08
55466;BME280;41329;41.594;23.810;2024-01-16T07:33:51;94341.72;;;4.29;72.82
55466;BME280;41329;41.594;23.810;2024-01-16T07:36:16;94372.06;;;4.55;72.73
55466;BME280;41329;41.594;23.810;2024-01-16T07:38:42;94375.91;;;4.70;73.21
55466;BME280;41329;41.594;23.810;2024-01-16T07:41:07;94362.72;;;4.75;72.26
55466;BME280;41329;41.594;23.810;2024-01-16T07:43:33;94361.28;;;4.81;72.06
55466;BME280;41329;41.594;23.810;2024-01-16T07:45:59;94344.84;;;4.81;72.10
55466;BME280;41329;41.594;23.810;2024-01-16T07:48:25;94376.75;;;5.08;71.98
55466;BME280;41329;41.594;23.810;2024-01-16T07:50:50;94372.13;;;5.12;72.79
55466;BME280;41329;41.594;23.810;2024-01-16T07:53:16;94364.84;;;5.20;73.87
55466;BME280;41329;41.594;23.810;2024-01-16T07:55:42;94347.28;;;5.24;73.81
55466;BME280;41329;41.594;23.810;2024-01-16T07:58:11;94366.63;;;5.50;74.20
55466;BME280;41329;41.594;23.810;2024-01-16T08:00:37;94363.84;;;5.69;74.32
55466;BME280;41329;41.594;23.810;2024-01-16T08:03:03;94379.88;;;5.86;74.96
55466;BME280;41329;41.594;23.810;2024-01-16T08:05:28;94384.38;;;5.98;74.59
55466;BME280;41329;41.594;23.810;2024-01-16T08:07:56;94345.03;;;6.13;76.22
55466;BME280;41329;41.594;23.810;2024-01-16T08:10:21;94369.59;;;6.51;76.26
55466;BME280;41329;41.594;23.810;2024-01-16T08:12:47;94360.81;;;6.68;76.07
55466;BME280;41329;41.594;23.810;2024-01-16T08:15:13;94383.41;;;6.81;73.02
55466;BME280;41329;41.594;23.810;2024-01-16T08:17:38;94374.31;;;6.77;71.16
55466;BME280;41329;41.594;23.810;2024-01-16T08:20:05;94397.28;;;6.65;69.92
55466;BME280;41329;41.594;23.810;2024-01-16T08:22:30;94399.97;;;6.62;69.69
55466;BME280;41329;41.594;23.810;2024-01-16T08:24:56;94384.13;;;6.52;69.44
55466;BME280;41329;41.594;23.810;2024-01-16T08:27:21;94425.03;;;6.57;69.18
55466;BME280;41329;41.594;23.810;2024-01-16T08:29:47;94414.22;;;6.44;68.93
55466;BME280;41329;41.594;23.810;2024-01-16T08:32:16;94433.59;;;6.52;70.44
55466;BME280;41329;41.594;23.810;2024-01-16T08:34:42;94432.47;;;6.56;69.69
55466;BME280;41329;41.594;23.810;2024-01-16T08:37:08;94435.94;;;6.53;68.95
55466;BME280;41329;41.594;23.810;2024-01-16T08:39:33;94440.72;;;6.56;68.83
55466;BME280;41329;41.594;23.810;2024-01-16T08:41:59;94454.56;;;6.63;68.76
55466;BME280;41329;41.594;23.810;2024-01-16T08:44:27;94436.19;;;6.67;69.01
55466;BME280;41329;41.594;23.810;2024-01-16T08:46:52;94455.97;;;6.53;68.93
55466;BME280;41329;41.594;23.810;2024-01-16T08:49:18;94441.88;;;6.55;69.57
55466;BME280;41329;41.594;23.810;2024-01-16T08:51:43;94425.88;;;6.61;70.46
55466;BME280;41329;41.594;23.810;2024-01-16T08:54:09;94422.81;;;6.66;72.25
55466;BME280;41329;41.594;23.810;2024-01-16T08:56:34;94451.19;;;6.73;71.71
55466;BME280;41329;41.594;23.810;2024-01-16T08:59:00;94447.44;;;6.58;71.71
55466;BME280;41329;41.594;23.810;2024-01-16T09:01:25;94452.53;;;6.83;72.36
55466;BME280;41329;41.594;23.810;2024-01-16T09:03:51;94452.97;;;7.11;72.92
55466;BME280;41329;41.594;23.810;2024-01-16T09:06:16;94424.63;;;7.07;72.65
55466;BME280;41329;41.594;23.810;2024-01-16T09:08:42;94441.47;;;7.31;73.46
55466;BME280;41329;41.594;23.810;2024-01-16T09:11:09;94442.56;;;7.53;74.04
55466;BME280;41329;41.594;23.810;2024-01-16T09:13:37;94442.13;;;7.84;73.57
55466;BME280;41329;41.594;23.810;2024-01-16T09:16:02;94451.50;;;8.12;71.04
55466;BME280;41329;41.594;23.810;2024-01-16T09:18:28;94447.78;;;8.27;71.18
55466;BME280;41329;41.594;23.810;2024-01-16T09:20:53;94450.41;;;8.57;72.40
55466;BME280;41329;41.594;23.810;2024-01-16T09:23:20;94442.31;;;8.78;72.39
55466;BME280;41329;41.594;23.810;2024-01-16T09:25:45;94448.88;;;9.10;71.52
55466;BME280;41329;41.594;23.810;2024-01-16T09:28:11;94450.28;;;9.40;69.98
55466;BME280;41329;41.594;23.810;2024-01-16T09:30:37;94475.56;;;9.46;66.71
55466;BME280;41329;41.594;23.810;2024-01-16T09:33:03;94463.34;;;9.50;66.21
55466;BME280;41329;41.594;23.810;2024-01-16T09:35:35;94453.47;;;9.46;66.40
55466;BME280;41329;41.594;23.810;2024-01-16T09:38:00;94460.56;;;9.50;65.08
55466;BME280;41329;41.594;23.810;2024-01-16T09:40:26;94469.59;;;9.40;64.80
55466;BME280;41329;41.594;23.810;2024-01-16T09:42:51;94470.72;;;9.32;67.17
55466;BME280;41329;41.594;23.810;2024-01-16T09:45:19;94472.44;;;9.54;67.68
55466;BME280;41329;41.594;23.810;2024-01-16T09:47:47;94470.16;;;9.70;66.34
55466;BME280;41329;41.594;23.810;2024-01-16T09:50:14;94494.28;;;9.80;64.49
55466;BME280;41329;41.594;23.810;2024-01-16T09:52:41;94480.41;;;9.70;63.39
55466;BME280;41329;41.594;23.810;2024-01-16T09:55:07;94488.25;;;9.61;64.32
55466;BME280;41329;41.594;23.810;2024-01-16T09:57:33;94482.34;;;9.66;63.83
55466;BME280;41329;41.594;23.810;2024-01-16T10:00:00;94489.94;;;9.76;65.16
55466;BME280;41329;41.594;23.810;2024-01-16T10:02:28;94478.50;;;9.84;65.25
55466;BME280;41329;41.594;23.810;2024-01-16T10:04:54;94482.19;;;10.06;65.13
55466;BME280;41329;41.594;23.810;2024-01-16T10:07:20;94489.03;;;10.36;65.93
55466;BME280;41329;41.594;23.810;2024-01-16T10:09:55;94464.94;;;10.44;65.06
55466;BME280;41329;41.594;23.810;2024-01-16T10:12:21;94486.34;;;10.82;64.16
55466;BME280;41329;41.594;23.810;2024-01-16T10:14:47;94473.72;;;11.02;63.80
55466;BME280;41329;41.594;23.810;2024-01-16T10:17:13;94475.31;;;11.31;64.72
55466;BME280;41329;41.594;23.810;2024-01-16T10:19:50;94459.06;;;11.50;64.36
55466;BME280;41329;41.594;23.810;2024-01-16T10:22:23;94467.69;;;11.84;63.75
55466;BME280;41329;41.594;23.810;2024-01-16T10:25:10;94473.53;;;12.21;63.53
55466;BME280;41329;41.594;23.810;2024-01-16T10:27:42;94472.63;;;12.45;62.00
55466;BME280;41329;41.594;23.810;2024-01-16T10:30:08;94465.38;;;12.62;59.36
55466;BME280;41329;41.594;23.810;2024-01-16T10:32:35;94462.19;;;12.70;59.13
55466;BME280;41329;41.594;23.810;2024-01-16T10:35:11;94462.88;;;12.85;57.57
55466;BME280;41329;41.594;23.810;2024-01-16T10:37:47;94467.59;;;12.98;57.81
55466;BME280;41329;41.594;23.810;2024-01-16T10:40:23;94446.09;;;13.06;56.44
55466;BME280;41329;41.594;23.810;2024-01-16T10:42:57;94459.59;;;13.04;55.60
55466;BME280;41329;41.594;23.810;2024-01-16T10:45:23;94457.88;;;13.17;56.49
55466;BME280;41329;41.594;23.810;2024-01-16T10:47:55;94454.28;;;13.23;55.72
55466;BME280;41329;41.594;23.810;2024-01-16T10:50:25;94457.31;;;13.39;57.18
55466;BME280;41329;41.594;23.810;2024-01-16T10:52:51;94446.50;;;13.48;56.30
55466;BME280;41329;41.594;23.810;2024-01-16T10:55:21;94451.94;;;13.62;53.26
55466;BME280;41329;41.594;23.810;2024-01-16T10:57:51;94450.28;;;13.68;52.70
55466;BME280;41329;41.594;23.810;2024-01-16T11:00:27;94448.25;;;13.76;51.69
55466;BME280;41329;41.594;23.810;2024-01-16T11:03:03;94451.75;;;13.80;52.51
55466;BME280;41329;41.594;23.810;2024-01-16T11:05:31;94449.59;;;13.98;51.35
55466;BME280;41329;41.594;23.810;2024-01-16T11:07:58;94439.22;;;13.98;49.53
55466;BME280;41329;41.594;23.810;2024-01-16T11:10:25;94459.31;;;14.13;48.75
55466;BME280;41329;41.594;23.810;2024-01-16T11:12:52;94452.31;;;14.01;48.42
55466;BME280;41329;41.594;23.810;2024-01-16T11:15:19;94448.00;;;13.97;48.77
55466;BME280;41329;41.594;23.810;2024-01-16T11:17:45;94456.59;;;14.09;47.84
55466;BME280;41329;41.594;23.810;2024-01-16T11:20:12;94454.63;;;14.06;45.58
55466;BME280;41329;41.594;23.810;2024-01-16T11:22:41;94460.72;;;13.98;47.40
55466;BME280;41329;41.594;23.810;2024-01-16T11:25:13;94469.28;;;14.14;49.30
55466;BME280;41329;41.594;23.810;2024-01-16T11:27:41;94466.81;;;14.23;47.64
55466;BME280;41329;41.594;23.810;2024-01-16T11:30:08;94484.56;;;14.32;45.67
55466;BME280;41329;41.594;23.810;2024-01-16T11:32:35;94481.28;;;14.41;45.39
55466;BME280;41329;41.594;23.810;2024-01-16T11:35:01;94473.34;;;14.39;45.33
55466;BME280;41329;41.594;23.810;2024-01-16T11:37:30;94468.59;;;14.36;46.11
55466;BME280;41329;41.594;23.810;2024-01-16T11:42:49;94459.63;;;14.25;44.75
55466;BME280;41329;41.594;23.810;2024-01-16T11:48:14;94484.28;;;14.23;43.80
55466;BME280;41329;41.594;23.810;2024-01-16T11:50:40;94485.97;;;14.10;43.48
55466;BME280;41329;41.594;23.810;2024-01-16T11:53:06;94473.88;;;13.90;44.00
55466;BME280;41329;41.594;23.810;2024-01-16T11:55:33;94489.63;;;14.07;44.54
55466;BME280;41329;41.594;23.810;2024-01-16T12:00:54;94486.56;;;13.95;44.61
55466;BME280;41329;41.594;23.810;2024-01-16T12:03:22;94474.69;;;13.91;42.58
55466;BME280;41329;41.594;23.810;2024-01-16T12:06:01;94473.16;;;13.83;42.89
55466;BME280;41329;41.594;23.810;2024-01-16T12:08:31;94496.34;;;14.06;43.56
55466;BME280;41329;41.594;23.810;2024-01-16T12:10:57;94484.69;;;14.22;43.68
55466;BME280;41329;41.594;23.810;2024-01-16T12:13:23;94493.63;;;14.40;41.95
55466;BME280;41329;41.594;23.810;2024-01-16T12:15:48;94501.22;;;14.36;41.14
55466;BME280;41329;41.594;23.810;2024-01-16T12:18:19;94498.44;;;14.36;42.06
55466;BME280;41329;41.594;23.810;2024-01-16T12:20:45;94504.00;;;14.36;41.67
55466;BME280;41329;41.594;23.810;2024-01-16T12:23:10;94506.19;;;14.18;41.13
55466;BME280;41329;41.594;23.810;2024-01-16T12:25:37;94505.38;;;14.21;41.89
55466;BME280;41329;41.594;23.810;2024-01-16T12:28:04;94513.72;;;14.17;41.42
55466;BME280;41329;41.594;23.810;2024-01-16T12:30:31;94514.88;;;14.20;42.04
55466;BME280;41329;41.594;23.810;2024-01-16T12:33:10;94519.13;;;14.35;42.05
55466;BME280;41329;41.594;23.810;2024-01-16T12:35:41;94509.50;;;14.06;41.36
55466;BME280;41329;41.594;23.810;2024-01-16T12:38:08;94503.88;;;14.09;41.58
55466;BME280;41329;41.594;23.810;2024-01-16T12:40:40;94529.06;;;14.36;40.89
55466;BME280;41329;41.594;23.810;2024-01-16T12:43:06;94533.81;;;14.35;40.77
55466;BME280;41329;41.594;23.810;2024-01-16T12:45:33;94515.81;;;14.06;41.44
55466;BME280;41329;41.594;23.810;2024-01-16T12:47:59;94543.75;;;14.36;41.63
55466;BME280;41329;41.594;23.810;2024-01-16T12:50:28;94526.63;;;14.38;40.47
55466;BME280;41329;41.594;23.810;2024-01-16T12:53:15;94549.19;;;14.47;40.85
55466;BME280;41329;41.594;23.810;2024-01-16T12:55:42;94545.53;;;14.53;40.95
55466;BME280;41329;41.594;23.810;2024-01-16T12:58:14;94539.38;;;14.35;40.48
55466;BME280;41329;41.594;23.810;2024-01-16T13:00:45;94529.34;;;14.45;42.49
55466;BME280;41329;41.594;23.810;2024-01-16T13:05:43;94561.97;;;14.78;40.37